This is the latest recevied weather packets stored in our database for station/object LB9CG. If no packets are shown the sender has not sent any weather packets the latest 10 day(s).
| Time | Temp. | Humidity | Pressure | Rain* | Wind** | Luminosity | Snow |
|---|---|---|---|---|---|---|---|
| 1778171416 | 7.78° C | 73% | 1016.1 hPa | 0 mm | - | - | - |
| 1778168416 | 7.22° C | 72% | 1015.8 hPa | 0 mm | - | - | - |
| 1778167216 | 7.22° C | 73% | 1015.6 hPa | 0 mm | - | - | - |
| 1778163016 | 7.78° C | 73% | 1015.3 hPa | 0 mm | - | - | - |
| 1778162416 | 7.78° C | 73% | 1015.3 hPa | 0 mm | - | - | - |
| 1778161236 | 7.78° C | 75% | 1015.1 hPa | 0 mm | - | - | - |
| 1778160616 | 7.78° C | 72% | 1015.1 hPa | 0 mm | - | - | - |
| 1778160016 | 8.33° C | 72% | 1015 hPa | 0 mm | - | - | - |
| 1778159416 | 8.33° C | 74% | 1015.1 hPa | 0 mm | - | - | - |
| 1778155816 | 8.89° C | 75% | 1014.9 hPa | 0 mm | - | - | - |
| 1778154016 | 7.22° C | 83% | 1014.8 hPa | 0 mm | - | - | - |
| 1778143816 | 3.89° C | 90% | 1013.9 hPa | 0 mm | - | - | - |
| 1778140238 | 3.89° C | 85% | 1013.6 hPa | 0 mm | - | - | - |
| 1778132437 | 4.44° C | 84% | 1012.7 hPa | 0 mm | - | - | - |
| 1778130617 | 2.22° C | 91% | 1012.6 hPa | 0 mm | - | - | - |
| 1778129437 | 2.22° C | 91% | 1012.4 hPa | 0 mm | - | - | - |
| 1778128217 | 2.22° C | 91% | 1012.3 hPa | 0 mm | - | - | - |
| 1778123417 | 2.22° C | 94% | 1011.7 hPa | 0 mm | - | - | - |
| 1778122217 | 2.22° C | 94% | 1011.6 hPa | 0 mm | - | - | - |
| 1778119217 | 1.67° C | 94% | 1011.4 hPa | 0 mm | - | - | - |
| 1778113217 | 2.22° C | 94% | 1011.2 hPa | 0 mm | - | - | - |
| 1778112616 | 1.67° C | 94% | 1011.3 hPa | 0 mm | - | - | - |
| 1778109617 | 1.67° C | 93% | 1010.9 hPa | 0 mm | - | - | - |
| 1778104217 | 1.67° C | 92% | 1010.5 hPa | 0 mm | - | - | - |
| 1778101217 | 1.67° C | 89% | 1010.2 hPa | 0 mm | - | - | - |
* Rain latest hour (hover to see other rain measurements)
** Current wind speed in m/s (hover to see current wind gust speed)